KEAT/EAT METAR and TAF weather

Enter ICAO airport designator
Station Type Date Time Source
KEAT METAR 2020/07/11 16:55 UTC NOAA

KEAT 111655Z AUTO 23005KT 10SM CLR 21/07 A3001 RMK AO2 SLP155 T02110072


Station Type Date Time Source
KEAT Decoded METAR 2020/07/11 16:55 UTC NOAA

WENATCHEE PANGBORN MEMO, WA, United States (KEAT) 47-24N 120-12W 377M
Jul 11, 2020 - 12:55 PM EDT / 2020.07.11 1655 UTC
Wind: from the SW (230 degrees) at 6 MPH (5 KT):0
Visibility: 10 mile(s):0
Sky conditions: clear
Temperature: 70.0 F (21.1 C)
Dew Point: 45.0 F (7.2 C)
Relative Humidity: 40%
Pressure (altimeter): 30.01 in. Hg (1016 hPa)
ob: KEAT 111655Z AUTO 23005KT 10SM CLR 21/07 A3001 RMK AO2 SLP155 T02110072
cycle: 17

Station Type Date Time Source
KEAT TAF 2020/07/11 12:27 UTC NOAA

TAF KEAT 111125Z 1112/1212 28006KT P6SM SKC
FM112300 28020G30KT P6SM SCT250
FM120400 29015KT P6SM BKN150
FM120900 30010KT P6SM SKC

Example: see airport list